Somerdale, New Jersey
Current Conditions -  °F | °C
As of 12:54 AM on Saturday 20 Dec 2014 (Local Time) from KVAY Reporting Station
Overcast Overcast  
Wind Chill: 30°   Ceiling: 3100
Heat Index: 30°   Visibility: 10mi
Dew Point: 22°   Wind: 0mph
Humidity: 72%   Direction: NA
Pressure: 30.2"   Gusts: NA
Location:  39.85°N, 75.01°W
Report Text: KVAY 200554Z AUTO 00000KT 10SM OVC031 M01/M06 A3020 RMK AO2 SLP226 T10111056 10006 21022 50001
Loading
Personal Weather Stations






























Interactive Weather Map New forecast layout! Learn more

10-Day Weather Forecast

Advertisements
Track Severe Weather on mobile